Time;durP1;ratioP1;P1;durP2;ratioP2;P2;SDS_P1;SDS_P2;PMS_P1;PMS_P2;Temp;Humidity;BMP_temperature;BMP_pressure;BME280_temperature;BME280_humidity;BME280_pressure;Samples;Min_cycle;Max_cycle;Signal;HPM_P1;HPM_P2
2022/06/25 00:01:30;;;;;;;3.20;0.90;;;15.00;99.90;;;;;;5051710;28;20368;-83
2022/06/25 00:03:57;;;;;;;1.97;0.97;;;15.10;99.90;;;;;;5051268;28;20569;-84
2022/06/25 00:06:25;;;;;;;2.28;0.90;;;15.20;99.90;;;;;;5051617;28;20418;-82
2022/06/25 00:08:53;;;;;;;3.42;1.00;;;15.30;99.90;;;;;;5051783;28;20788;-82
2022/06/25 00:14:11;;;;;;;3.80;0.90;;;15.50;99.90;;;;;;5051330;28;20367;-82
2022/06/25 00:16:39;;;;;;;2.88;1.63;;;15.70;99.90;;;;;;5051369;28;20380;-82
2022/06/25 00:19:06;;;;;;;1.20;0.82;;;15.80;99.90;;;;;;5051584;28;20380;-82
2022/06/25 00:21:33;;;;;;;1.63;0.93;;;15.80;99.90;;;;;;5051226;28;20376;-82
2022/06/25 00:24:00;;;;;;;2.70;0.90;;;15.90;99.90;;;;;;5051310;28;20546;-83
2022/06/25 00:26:28;;;;;;;2.55;1.00;;;16.00;99.90;;;;;;5052050;28;20799;-82
2022/06/25 00:28:55;;;;;;;3.78;1.27;;;16.10;99.90;;;;;;5051054;28;20398;-82
2022/06/25 00:31:22;;;;;;;2.10;1.10;;;16.20;99.60;;;;;;5051149;28;20404;-82
2022/06/25 00:33:49;;;;;;;2.35;1.25;;;16.20;99.40;;;;;;5050984;28;20451;-83
2022/06/25 00:36:16;;;;;;;2.78;1.10;;;16.30;99.90;;;;;;5050929;28;20410;-83
2022/06/25 00:38:44;;;;;;;2.08;1.02;;;16.40;99.50;;;;;;5050884;28;20445;-79
2022/06/25 00:41:15;;;;;;;3.33;1.02;;;16.30;99.80;;;;;;5050816;28;20383;-80
2022/06/25 00:43:42;;;;;;;1.95;0.90;;;16.40;99.40;;;;;;5050876;28;20364;-82
2022/06/25 00:46:09;;;;;;;2.27;0.93;;;16.50;98.60;;;;;;5050582;28;20398;-82
2022/06/25 00:48:36;;;;;;;2.40;0.90;;;16.60;98.70;;;;;;5051115;28;20370;-88
2022/06/25 00:51:11;;;;;;;2.65;1.08;;;16.70;98.70;;;;;;5051224;28;20384;-80
2022/06/25 00:53:41;;;;;;;2.47;1.03;;;16.70;99.00;;;;;;5051082;28;20882;-84
2022/06/25 00:56:10;;;;;;;3.08;1.00;;;17.00;98.00;;;;;;5051395;28;20823;-78
2022/06/25 00:58:41;;;;;;;1.63;0.90;;;17.10;97.60;;;;;;5050881;28;20392;-84
2022/06/25 01:01:09;;;;;;;2.35;1.00;;;17.20;97.30;;;;;;5051026;28;20458;-80
2022/06/25 01:03:37;;;;;;;4.28;1.05;;;17.30;97.10;;;;;;5050641;28;20422;-85
2022/06/25 01:06:06;;;;;;;2.60;0.90;;;17.40;96.40;;;;;;5050615;28;20937;-89
2022/06/25 01:08:36;;;;;;;2.35;0.90;;;17.40;96.70;;;;;;5050347;28;20376;-85
2022/06/25 01:11:04;;;;;;;2.50;0.80;;;17.50;96.40;;;;;;5051028;28;20379;-82
2022/06/25 01:13:31;;;;;;;2.00;0.70;;;17.50;96.10;;;;;;5052022;28;20384;-88
2022/06/25 01:15:59;;;;;;;2.40;0.80;;;17.50;93.80;;;;;;5050616;28;20386;-89
2022/06/25 01:18:26;;;;;;;1.85;0.70;;;17.50;94.40;;;;;;5050990;28;20368;-77
2022/06/25 01:20:53;;;;;;;2.55;0.80;;;17.70;94.10;;;;;;5050622;28;20924;-79
2022/06/25 01:23:20;;;;;;;1.20;0.70;;;17.90;94.00;;;;;;5050280;28;20771;-84
2022/06/25 01:25:47;;;;;;;0.95;0.77;;;17.90;92.10;;;;;;5050705;28;20411;-77
2022/06/25 01:28:15;;;;;;;2.40;0.82;;;17.90;93.00;;;;;;5032874;28;20459;-77
2022/06/25 01:30:42;;;;;;;1.45;0.70;;;18.00;92.10;;;;;;5050657;28;20394;-80
2022/06/25 01:33:10;;;;;;;2.25;0.60;;;17.90;92.60;;;;;;5050692;28;20917;-77
2022/06/25 01:35:37;;;;;;;1.52;0.80;;;18.00;92.20;;;;;;5050336;28;20380;-83
2022/06/25 01:38:05;;;;;;;1.02;0.50;;;18.20;91.20;;;;;;5050491;28;20376;-77
2022/06/25 01:40:33;;;;;;;1.42;0.70;;;18.30;91.30;;;;;;5050863;28;20855;-82
2022/06/25 01:43:01;;;;;;;1.33;0.70;;;18.20;91.40;;;;;;5049721;28;20364;-86
2022/06/25 01:45:32;;;;;;;1.03;0.63;;;18.30;90.70;;;;;;5049593;28;20436;-76
2022/06/25 01:47:59;;;;;;;2.25;0.68;;;18.30;90.90;;;;;;5049781;28;20723;-82
2022/06/25 01:50:27;;;;;;;1.25;0.70;;;18.10;90.20;;;;;;5050750;28;20473;-83
2022/06/25 01:52:55;;;;;;;0.90;0.68;;;18.00;90.80;;;;;;5049869;28;20839;-90
2022/06/25 01:55:22;;;;;;;1.52;0.60;;;18.10;90.40;;;;;;5031704;28;20408;-85
2022/06/25 01:57:51;;;;;;;1.10;0.60;;;18.20;90.20;;;;;;5049550;28;20372;-84
2022/06/25 02:00:21;;;;;;;1.33;0.60;;;18.20;90.60;;;;;;5049438;28;20376;-76
2022/06/25 02:02:49;;;;;;;2.80;0.60;;;18.30;90.50;;;;;;5049782;28;20390;-76
2022/06/25 02:05:18;;;;;;;1.50;0.70;;;18.30;90.40;;;;;;5049072;28;20474;-76
2022/06/25 02:07:45;;;;;;;2.00;0.68;;;18.30;90.20;;;;;;5049380;28;20395;-78
2022/06/25 02:10:12;;;;;;;10.90;2.15;;;18.30;89.70;;;;;;5049555;28;20368;-81
2022/06/25 02:12:39;;;;;;;0.82;0.65;;;18.30;90.00;;;;;;5049213;28;20410;-79
2022/06/25 02:15:08;;;;;;;1.50;0.70;;;18.30;90.30;;;;;;5049420;28;20372;-80
2022/06/25 02:17:35;;;;;;;1.42;0.70;;;18.40;90.60;;;;;;5048965;28;20775;-78
2022/06/25 02:20:02;;;;;;;1.20;0.60;;;18.40;90.10;;;;;;5049130;28;20379;-80
2022/06/25 02:22:29;;;;;;;1.50;0.90;;;18.30;90.20;;;;;;5049089;28;20380;-80
2022/06/25 02:24:56;;;;;;;2.03;0.70;;;18.70;88.20;;;;;;5048909;28;20823;-77
2022/06/25 02:48:28;;;;;;;2.22;1.10;;;19.50;81.80;;;;;;5127683;27;20366;-77
2022/06/25 02:50:55;;;;;;;2.35;0.60;;;19.00;81.40;;;;;;5128455;28;20401;-78
2022/06/25 02:53:22;;;;;;;1.00;0.70;;;19.00;81.10;;;;;;5128431;27;20395;-78
2022/06/25 03:01:19;;;;;;;1.10;0.70;;;19.20;80.30;;;;;;5128456;27;20420;-80
2022/06/25 03:03:47;;;;;;;1.60;0.90;;;19.20;78.50;;;;;;5128081;28;20751;-77
2022/06/25 03:06:14;;;;;;;1.60;0.77;;;19.20;79.10;;;;;;5127433;27;20386;-77
2022/06/25 03:08:41;;;;;;;1.50;0.55;;;19.20;77.90;;;;;;5127903;27;20434;-76
2022/06/25 03:11:09;;;;;;;1.08;0.50;;;19.20;77.90;;;;;;5128036;28;20370;-77
2022/06/25 03:13:37;;;;;;;2.25;0.70;;;19.20;76.50;;;;;;5128134;28;20402;-77
2022/06/25 03:16:08;;;;;;;1.10;0.70;;;19.10;77.90;;;;;;5128025;27;20374;-77
2022/06/25 03:18:36;;;;;;;1.13;0.63;;;19.20;79.00;;;;;;5128101;28;20384;-76
2022/06/25 03:21:04;;;;;;;1.48;0.60;;;19.30;76.90;;;;;;5127551;28;20370;-77
2022/06/25 03:23:31;;;;;;;1.42;0.60;;;19.50;79.20;;;;;;5128008;27;20457;-77
2022/06/25 03:25:58;;;;;;;2.53;0.60;;;19.60;77.70;;;;;;5088042;28;20386;-77
2022/06/25 03:28:25;;;;;;;1.27;0.60;;;19.70;77.00;;;;;;5115368;28;20873;-77
2022/06/25 03:30:52;;;;;;;2.60;0.67;;;19.70;76.20;;;;;;5127338;28;20369;-79
2022/06/25 03:33:20;;;;;;;1.55;0.60;;;19.70;76.10;;;;;;5113218;28;20389;-76
2022/06/25 03:35:47;;;;;;;1.77;0.70;;;19.70;76.50;;;;;;5108222;28;20459;-78
2022/06/25 03:38:14;;;;;;;2.17;0.88;;;19.70;76.10;;;;;;5127432;28;20382;-77
2022/06/25 03:40:41;;;;;;;2.70;0.90;;;19.60;78.20;;;;;;5127384;28;20775;-78
2022/06/25 03:43:08;;;;;;;1.33;0.65;;;19.70;77.20;;;;;;5126061;28;20421;-81
2022/06/25 03:45:35;;;;;;;2.42;0.60;;;19.60;75.10;;;;;;5127438;27;20362;-78
2022/06/25 03:48:02;;;;;;;3.78;0.80;;;19.50;76.80;;;;;;5126432;27;20453;-85
2022/06/25 03:50:29;;;;;;;1.30;0.70;;;19.60;77.50;;;;;;5126898;28;20378;-83
2022/06/25 03:52:57;;;;;;;1.92;0.70;;;19.60;77.50;;;;;;5129089;27;20374;-78
2022/06/25 03:55:24;;;;;;;2.28;0.80;;;19.70;77.70;;;;;;5127374;27;20362;-86
2022/06/25 03:57:51;;;;;;;1.77;0.73;;;19.70;75.60;;;;;;5125417;27;20370;-84
2022/06/25 04:00:18;;;;;;;1.30;0.70;;;19.70;75.70;;;;;;5111910;28;20387;-81
2022/06/25 04:02:45;;;;;;;2.35;0.80;;;19.70;76.00;;;;;;5113065;28;20386;-80
2022/06/25 04:05:12;;;;;;;2.97;0.80;;;19.70;77.30;;;;;;5112446;28;20383;-79
2022/06/25 04:07:39;;;;;;;1.98;0.77;;;19.80;77.00;;;;;;5109726;28;20762;-87
2022/06/25 04:10:07;;;;;;;3.20;0.60;;;19.60;76.70;;;;;;5113383;28;20415;-87
2022/06/25 04:12:34;;;;;;;5.63;0.70;;;19.70;75.80;;;;;;5095000;28;20809;-86
2022/06/25 04:15:01;;;;;;;0.70;0.50;;;19.80;75.70;;;;;;5112952;28;20428;-88
2022/06/25 04:17:28;;;;;;;1.48;0.50;;;19.80;75.80;;;;;;5112951;28;20382;-81
2022/06/25 04:19:56;;;;;;;0.93;0.40;;;19.70;74.10;;;;;;5111782;28;20443;-78
2022/06/25 04:22:23;;;;;;;0.60;0.50;;;19.50;75.30;;;;;;5112655;28;20390;-83
2022/06/25 04:24:51;;;;;;;0.95;0.45;;;19.50;74.90;;;;;;5112342;28;20378;-83
2022/06/25 04:30:04;;;;;;;0.75;0.40;;;19.60;74.90;;;;;;5112244;28;20397;-82
2022/06/25 04:32:31;;;;;;;1.45;0.43;;;19.60;74.50;;;;;;5113268;28;20399;-82
2022/06/25 04:34:58;;;;;;;1.00;0.40;;;19.60;74.00;;;;;;5112080;28;20385;-82
2022/06/25 04:37:25;;;;;;;0.73;0.40;;;19.50;73.90;;;;;;5113215;28;20453;-82
2022/06/25 04:39:53;;;;;;;2.03;0.40;;;19.50;73.30;;;;;;5112442;28;20383;-82
2022/06/25 04:42:20;;;;;;;0.70;0.40;;;19.50;73.90;;;;;;5112077;28;20486;-81
2022/06/25 04:44:47;;;;;;;1.42;0.40;;;19.50;74.30;;;;;;5112629;28;20386;-78
2022/06/25 04:47:14;;;;;;;0.70;0.32;;;19.50;74.40;;;;;;5112367;28;20417;-80
2022/06/25 04:49:41;;;;;;;0.50;0.30;;;19.50;74.10;;;;;;5111406;28;20378;-80
2022/06/25 04:52:08;;;;;;;0.75;0.40;;;19.60;74.30;;;;;;5110477;28;20409;-83
2022/06/25 04:54:35;;;;;;;1.40;0.50;;;19.80;73.60;;;;;;5110933;28;20402;-79
2022/06/25 04:57:03;;;;;;;2.20;0.50;;;20.40;72.10;;;;;;5111517;28;20387;-82
2022/06/25 04:59:30;;;;;;;1.50;0.40;;;20.60;70.90;;;;;;5111018;28;20379;-82
2022/06/25 05:01:58;;;;;;;2.08;0.50;;;20.50;70.80;;;;;;5111679;28;20386;-81
2022/06/25 05:04:28;;;;;;;1.33;0.50;;;20.00;70.40;;;;;;5112006;28;20375;-78
2022/06/25 05:06:55;;;;;;;1.08;0.40;;;19.70;71.40;;;;;;5111230;28;20422;-79
2022/06/25 05:09:22;;;;;;;1.55;0.40;;;19.50;72.80;;;;;;5111903;28;20375;-79
2022/06/25 05:11:49;;;;;;;1.00;0.40;;;19.50;74.90;;;;;;5110604;28;20949;-81
2022/06/25 05:14:16;;;;;;;1.10;0.40;;;19.40;73.40;;;;;;5111327;28;20418;-80
2022/06/25 05:16:45;;;;;;;1.48;0.30;;;19.20;75.30;;;;;;5110502;28;20383;-82
2022/06/25 05:19:12;;;;;;;1.27;0.50;;;19.10;75.60;;;;;;5110181;28;20772;-80
2022/06/25 05:21:40;;;;;;;1.10;0.40;;;19.10;74.20;;;;;;5111364;28;20398;-82
2022/06/25 05:24:07;;;;;;;1.38;0.50;;;19.10;74.50;;;;;;5110083;28;20862;-83
2022/06/25 05:26:34;;;;;;;2.25;0.40;;;19.10;75.30;;;;;;5105049;28;20745;-78
2022/06/25 05:29:01;;;;;;;0.65;0.30;;;19.20;73.70;;;;;;5109260;28;20783;-81
2022/06/25 05:31:28;;;;;;;0.70;0.30;;;19.10;73.50;;;;;;5110957;28;20390;-78
2022/06/25 05:33:55;;;;;;;0.90;0.40;;;19.10;74.00;;;;;;5111449;28;20359;-80
2022/06/25 05:36:23;;;;;;;0.98;0.40;;;19.10;73.90;;;;;;5110076;28;20431;-81
2022/06/25 05:38:50;;;;;;;2.60;0.40;;;19.10;73.10;;;;;;5110849;28;20382;-87
2022/06/25 05:41:17;;;;;;;0.90;0.30;;;19.10;74.10;;;;;;5110345;28;20382;-76
2022/06/25 05:43:44;;;;;;;1.00;0.40;;;19.00;73.10;;;;;;5110689;28;20387;-85
2022/06/25 05:46:11;;;;;;;0.82;0.40;;;18.90;74.70;;;;;;5110837;28;20862;-86
2022/06/25 05:48:38;;;;;;;0.70;0.30;;;18.80;74.50;;;;;;5106250;28;20405;-77
2022/06/25 05:51:06;;;;;;;0.68;0.40;;;18.70;74.80;;;;;;5111228;28;20432;-83
2022/06/25 05:53:33;;;;;;;1.27;0.30;;;18.60;75.80;;;;;;5110979;28;20414;-78
2022/06/25 05:56:00;;;;;;;1.60;0.40;;;18.60;76.00;;;;;;5101675;28;20750;-82
2022/06/25 05:58:27;;;;;;;0.73;0.47;;;18.50;76.10;;;;;;5104219;28;20393;-80
2022/06/25 06:00:54;;;;;;;0.50;0.40;;;18.50;76.70;;;;;;5110715;28;20378;-81
2022/06/25 06:03:23;;;;;;;1.55;0.40;;;18.30;77.60;;;;;;5110554;28;20413;-77
2022/06/25 06:05:50;;;;;;;2.35;0.50;;;18.20;78.50;;;;;;5067270;28;20398;-78
2022/06/25 06:08:17;;;;;;;2.08;0.60;;;18.00;79.40;;;;;;5068035;28;20437;-82
2022/06/25 06:10:44;;;;;;;1.60;0.50;;;17.80;80.60;;;;;;5059431;28;20382;-78
2022/06/25 06:13:11;;;;;;;1.05;0.70;;;17.70;81.00;;;;;;5068119;28;20378;-77
2022/06/25 06:15:38;;;;;;;2.60;0.70;;;17.50;82.00;;;;;;5066719;28;20390;-79
2022/06/25 06:18:05;;;;;;;2.67;0.80;;;17.40;82.70;;;;;;5066555;28;20738;-82
2022/06/25 06:20:32;;;;;;;1.50;0.90;;;17.30;83.50;;;;;;5065853;28;20393;-82
2022/06/25 06:23:00;;;;;;;2.33;0.95;;;17.10;84.30;;;;;;5063744;28;20451;-82
2022/06/25 06:25:27;;;;;;;1.60;0.60;;;17.00;85.10;;;;;;5067363;28;20385;-80
2022/06/25 06:27:54;;;;;;;1.00;0.70;;;16.90;85.70;;;;;;5056544;28;20406;-80
2022/06/25 06:30:21;;;;;;;1.48;0.70;;;16.90;85.20;;;;;;5066945;28;20386;-81
2022/06/25 06:32:48;;;;;;;1.58;0.63;;;16.80;86.20;;;;;;5067179;28;20447;-82
2022/06/25 06:35:16;;;;;;;1.40;0.80;;;16.70;85.80;;;;;;5067474;28;20393;-81
2022/06/25 06:37:43;;;;;;;2.10;0.70;;;16.50;86.50;;;;;;5065350;28;20394;-81
2022/06/25 06:40:10;;;;;;;2.50;0.60;;;16.30;87.20;;;;;;5067003;28;20393;-78
2022/06/25 06:42:38;;;;;;;2.08;0.70;;;16.00;88.40;;;;;;5076618;28;20402;-79
2022/06/25 06:45:05;;;;;;;2.88;0.68;;;15.80;89.70;;;;;;5109655;28;20385;-78
2022/06/25 06:47:32;;;;;;;2.75;0.70;;;15.70;90.40;;;;;;5098718;28;20404;-80
2022/06/25 06:49:59;;;;;;;2.27;0.60;;;15.50;90.80;;;;;;5108741;28;20739;-80
2022/06/25 06:52:27;;;;;;;2.40;0.80;;;15.50;91.60;;;;;;5109696;28;20429;-81
2022/06/25 06:54:54;;;;;;;4.03;1.15;;;15.50;91.40;;;;;;5109356;28;20785;-79
2022/06/25 06:57:21;;;;;;;5.70;2.33;;;15.60;91.70;;;;;;5108602;28;20509;-82
2022/06/25 06:59:48;;;;;;;16.83;9.75;;;15.60;91.70;;;;;;5108375;28;20390;-82
2022/06/25 07:02:15;;;;;;;2.80;1.35;;;15.50;91.90;;;;;;5108453;28;20380;-81
2022/06/25 07:04:43;;;;;;;14.38;11.23;;;15.50;92.00;;;;;;5109132;28;20855;-80
2022/06/25 07:07:10;;;;;;;6.80;4.32;;;15.40;92.20;;;;;;5109472;28;20429;-77
2022/06/25 07:09:37;;;;;;;13.68;9.75;;;15.20;93.00;;;;;;5091178;28;20375;-81
2022/06/25 07:12:05;;;;;;;18.23;15.13;;;14.90;94.30;;;;;;5117223;28;20390;-79
2022/06/25 07:14:32;;;;;;;36.72;29.77;;;14.70;95.20;;;;;;5115334;28;20513;-81
2022/06/25 07:16:59;;;;;;;118.20;91.63;;;14.50;96.30;;;;;;5109903;28;20479;-80
2022/06/25 07:19:26;;;;;;;86.35;67.72;;;14.30;97.30;;;;;;5109398;28;20378;-80
2022/06/25 07:21:54;;;;;;;86.63;65.97;;;14.10;98.70;;;;;;5109240;28;20474;-83
2022/06/25 07:24:22;;;;;;;47.42;35.70;;;13.90;99.60;;;;;;5101246;28;20382;-82
2022/06/25 07:26:49;;;;;;;25.33;18.77;;;13.70;99.90;;;;;;5107393;28;20386;-80
2022/06/25 07:29:17;;;;;;;39.83;26.02;;;13.70;99.90;;;;;;5108409;28;20866;-81
2022/06/25 07:31:44;;;;;;;63.03;42.00;;;13.50;99.90;;;;;;5109996;28;20421;-81
2022/06/25 07:34:12;;;;;;;21.17;10.80;;;13.40;99.90;;;;;;5111755;28;20387;-83
2022/06/25 07:36:39;;;;;;;51.17;29.75;;;13.30;99.90;;;;;;5114410;28;20462;-84
2022/06/25 07:39:06;;;;;;;36.70;20.83;;;13.20;99.90;;;;;;5113609;28;20382;-85
2022/06/25 07:41:33;;;;;;;16.05;6.97;;;13.20;99.90;;;;;;5113055;28;20776;-78
2022/06/25 07:44:00;;;;;;;12.48;4.43;;;13.10;99.90;;;;;;5113197;28;20726;-82
2022/06/25 07:46:27;;;;;;;10.02;3.15;;;13.00;99.90;;;;;;5112444;28;20477;-84
2022/06/25 07:48:55;;;;;;;6.83;3.17;;;13.00;99.90;;;;;;5102024;28;20399;-80
2022/06/25 07:54:07;;;;;;;8.10;4.47;;;12.80;99.90;;;;;;5112535;28;20390;-84
2022/06/25 07:56:34;;;;;;;10.43;5.85;;;12.70;99.90;;;;;;5112469;28;20862;-81
2022/06/25 07:59:01;;;;;;;7.93;4.72;;;12.70;99.90;;;;;;5113036;28;20444;-80
2022/06/25 08:01:28;;;;;;;9.25;4.75;;;12.70;99.90;;;;;;5113124;28;20386;-79
2022/06/25 08:03:55;;;;;;;7.63;4.30;;;12.80;99.90;;;;;;5111668;28;20390;-81
2022/06/25 08:06:23;;;;;;;8.10;4.60;;;12.80;99.90;;;;;;5113209;28;20738;-78
2022/06/25 08:08:50;;;;;;;5.77;2.43;;;12.80;99.90;;;;;;5112475;28;20395;-80
2022/06/25 08:11:17;;;;;;;5.93;3.20;;;12.90;99.90;;;;;;5111841;28;20371;-79
2022/06/25 08:13:44;;;;;;;5.60;3.10;;;13.10;99.90;;;;;;5109046;28;20383;-80
2022/06/25 08:16:12;;;;;;;10.73;3.90;;;13.20;99.90;;;;;;5101200;28;20382;-80
2022/06/25 08:18:39;;;;;;;8.60;4.63;;;13.40;99.90;;;;;;5112256;28;20394;-79
2022/06/25 08:21:07;;;;;;;12.05;5.20;;;13.50;99.90;;;;;;5111860;28;20383;-79
2022/06/25 08:23:34;;;;;;;10.07;4.60;;;13.40;99.90;;;;;;5095508;28;20957;-80
2022/06/25 08:26:01;;;;;;;10.13;4.93;;;13.30;99.90;;;;;;5110598;28;20383;-81
2022/06/25 08:28:28;;;;;;;9.30;5.13;;;13.10;99.90;;;;;;5097269;28;20496;-83
2022/06/25 08:30:55;;;;;;;9.80;6.10;;;13.00;99.90;;;;;;5109419;28;20379;-82
2022/06/25 08:33:23;;;;;;;9.48;5.53;;;12.90;99.90;;;;;;5103764;28;20386;-81
2022/06/25 08:35:50;;;;;;;8.20;5.60;;;12.80;99.90;;;;;;5100974;28;20391;-82
2022/06/25 08:38:18;;;;;;;14.23;6.07;;;12.70;99.90;;;;;;5106991;28;20410;-77
2022/06/25 08:40:48;;;;;;;10.73;6.85;;;12.50;99.90;;;;;;5105475;28;20398;-81
2022/06/25 08:43:18;;;;;;;16.35;10.90;;;12.70;99.90;;;;;;5110283;28;20394;-79
2022/06/25 08:45:46;;;;;;;17.63;12.52;;;12.40;99.90;;;;;;5108869;28;20780;-78
2022/06/25 08:48:20;;;;;;;13.63;8.55;;;12.30;99.90;;;;;;5098683;28;20408;-78
2022/06/25 08:50:49;;;;;;;10.60;7.32;;;12.20;99.90;;;;;;5099695;28;20376;-81
2022/06/25 08:53:18;;;;;;;11.05;8.10;;;12.20;99.90;;;;;;5107201;28;20448;-81
2022/06/25 08:55:46;;;;;;;7.43;6.50;;;12.20;99.90;;;;;;5109300;28;20387;-79
2022/06/25 08:58:14;;;;;;;9.98;6.80;;;12.20;99.90;;;;;;5105979;28;20427;-82
2022/06/25 09:00:48;;;;;;;11.23;7.40;;;12.10;99.90;;;;;;5110457;28;20383;-79
2022/06/25 09:03:15;;;;;;;19.58;15.15;;;12.00;99.90;;;;;;5093469;28;20409;-78
2022/06/25 09:05:43;;;;;;;12.50;8.68;;;11.90;99.90;;;;;;5104384;28;20460;-78
2022/06/25 09:08:13;;;;;;;15.88;10.90;;;11.90;99.90;;;;;;5109226;28;20407;-80
2022/06/25 09:10:43;;;;;;;13.63;9.25;;;11.90;99.90;;;;;;5099026;28;20372;-79
2022/06/25 09:13:12;;;;;;;16.20;12.50;;;11.80;99.90;;;;;;5097150;28;20421;-79
2022/06/25 09:15:45;;;;;;;17.92;12.88;;;11.80;99.90;;;;;;5112025;28;20435;-81
2022/06/25 09:18:15;;;;;;;14.60;11.00;;;11.80;99.90;;;;;;5110593;28;20427;-82
2022/06/25 09:21:07;;;;;;;18.25;11.00;;;11.70;99.90;;;;;;5099877;28;20460;-77
2022/06/25 09:23:38;;;;;;;14.27;10.18;;;11.50;99.90;;;;;;5099385;28;20370;-82
2022/06/25 09:26:10;;;;;;;21.58;13.30;;;11.30;99.90;;;;;;5111336;28;20378;-79
2022/06/25 09:28:42;;;;;;;23.95;16.05;;;11.20;99.90;;;;;;5111911;28;20489;-82
2022/06/25 09:31:09;;;;;;;22.58;15.48;;;11.20;99.90;;;;;;5093228;28;20447;-78
2022/06/25 09:33:39;;;;;;;16.75;12.23;;;11.10;99.90;;;;;;5111857;28;20470;-79
2022/06/25 09:36:09;;;;;;;18.83;11.88;;;11.10;99.90;;;;;;5111276;28;20378;-83
2022/06/25 09:38:49;;;;;;;17.05;13.32;;;11.10;99.90;;;;;;5110584;28;20482;-81
2022/06/25 09:41:16;;;;;;;24.08;16.20;;;11.00;99.90;;;;;;5111134;28;20383;-81
2022/06/25 09:43:47;;;;;;;24.08;18.73;;;11.00;99.90;;;;;;5110800;28;20391;-79
2022/06/25 09:46:14;;;;;;;27.80;21.17;;;10.80;99.90;;;;;;5110620;28;20906;-81
2022/06/25 09:48:42;;;;;;;25.85;17.25;;;10.80;99.90;;;;;;5110878;28;20415;-79
2022/06/25 09:51:19;;;;;;;22.45;16.67;;;10.70;99.90;;;;;;5110418;28;20383;-82
2022/06/25 09:53:51;;;;;;;24.92;18.58;;;10.60;99.90;;;;;;5075031;28;20391;-83
2022/06/25 09:56:23;;;;;;;24.77;16.80;;;10.60;99.90;;;;;;5110561;28;20386;-81
2022/06/25 09:58:53;;;;;;;25.15;16.20;;;10.70;99.90;;;;;;5102125;28;20429;-82
2022/06/25 10:01:23;;;;;;;22.38;15.68;;;10.60;99.90;;;;;;5110145;28;20391;-81
2022/06/25 10:03:51;;;;;;;22.15;16.08;;;10.60;99.90;;;;;;5110513;28;20386;-81
2022/06/25 10:06:21;;;;;;;23.45;16.10;;;10.50;99.90;;;;;;5092390;28;20397;-79
2022/06/25 10:08:55;;;;;;;20.83;15.77;;;10.40;99.90;;;;;;5110657;28;20416;-81
2022/06/25 10:11:26;;;;;;;26.90;20.05;;;10.40;99.90;;;;;;5109998;28;20862;-81
2022/06/25 10:13:53;;;;;;;33.83;23.85;;;10.30;99.90;;;;;;5092619;28;20849;-83
2022/06/25 10:16:23;;;;;;;34.40;24.75;;;10.30;99.90;;;;;;5091984;28;20772;-81
2022/06/25 10:18:50;;;;;;;40.22;27.10;;;10.20;99.90;;;;;;5109719;28;20437;-78
2022/06/25 10:21:23;;;;;;;34.90;22.60;;;10.10;99.90;;;;;;5109630;28;20414;-80
2022/06/25 10:23:57;;;;;;;35.17;23.23;;;10.00;99.90;;;;;;5110141;28;20393;-81
2022/06/25 10:26:25;;;;;;;29.50;20.98;;;9.90;99.90;;;;;;5105720;28;20460;-81
2022/06/25 10:28:52;;;;;;;30.13;21.25;;;9.90;99.90;;;;;;5101976;28;20383;-81
2022/06/25 10:31:20;;;;;;;29.70;19.65;;;9.90;99.90;;;;;;5110322;28;20382;-78
2022/06/25 10:34:05;;;;;;;23.55;17.38;;;9.90;99.90;;;;;;5110040;28;20387;-77
2022/06/25 10:36:59;;;;;;;22.50;16.02;;;9.90;99.90;;;;;;5108535;28;20363;-82
2022/06/25 10:39:29;;;;;;;21.97;16.30;;;9.90;99.90;;;;;;5106543;28;20432;-79
2022/06/25 10:45:07;;;;;;;22.15;16.02;;;9.90;99.90;;;;;;5109961;28;20504;-82
2022/06/25 10:47:51;;;;;;;21.95;17.15;;;9.80;99.90;;;;;;5109327;28;20403;-82
2022/06/25 10:50:25;;;;;;;24.13;16.70;;;9.70;99.90;;;;;;5109627;28;20413;-81
2022/06/25 10:53:05;;;;;;;23.30;16.15;;;9.60;99.90;;;;;;5110044;28;20390;-80
2022/06/25 10:55:37;;;;;;;23.48;17.10;;;9.60;99.90;;;;;;5096819;28;20405;-81
2022/06/25 10:58:17;;;;;;;21.38;16.70;;;9.50;99.90;;;;;;5110660;28;20406;-80
2022/06/25 11:01:01;;;;;;;23.73;18.13;;;9.60;99.90;;;;;;5105060;28;20900;-81
2022/06/25 11:03:28;;;;;;;27.88;17.98;;;9.50;99.90;;;;;;5108549;28;20725;-82
2022/06/25 11:05:58;;;;;;;38.28;28.15;;;9.50;99.90;;;;;;5108979;28;20461;-82
2022/06/25 11:08:36;;;;;;;30.80;24.23;;;9.40;99.90;;;;;;5110579;28;20402;-79
2022/06/25 11:11:05;;;;;;;21.80;16.23;;;9.30;99.90;;;;;;5104848;28;20453;-82
2022/06/25 11:13:33;;;;;;;18.38;14.05;;;9.30;99.90;;;;;;5113405;28;20387;-82
2022/06/25 11:16:00;;;;;;;24.75;16.33;;;9.30;99.90;;;;;;5113117;28;20482;-76
2022/06/25 11:18:27;;;;;;;22.45;16.88;;;9.30;99.90;;;;;;5114141;28;20446;-81
2022/06/25 11:20:54;;;;;;;21.63;13.93;;;9.10;99.90;;;;;;5113240;28;20393;-79
2022/06/25 11:23:26;;;;;;;20.35;15.38;;;9.10;99.90;;;;;;5113577;28;20387;-81
2022/06/25 11:28:53;;;;;;;26.77;21.58;;;9.00;99.90;;;;;;5110437;28;20899;-77
2022/06/25 11:31:22;;;;;;;66.40;51.42;;;8.90;99.90;;;;;;5113755;28;20866;-77
2022/06/25 11:33:52;;;;;;;143.02;121.50;;;8.90;99.90;;;;;;5112060;28;20386;-80
2022/06/25 11:36:20;;;;;;;104.25;83.47;;;8.80;99.90;;;;;;5110267;28;20377;-81
2022/06/25 11:38:54;;;;;;;58.25;44.50;;;8.90;99.90;;;;;;5113601;28;20391;-77
2022/06/25 11:41:21;;;;;;;33.22;24.55;;;8.80;99.90;;;;;;5113883;28;20370;-77
2022/06/25 11:43:49;;;;;;;22.88;16.77;;;8.90;99.90;;;;;;5113173;28;20387;-80
2022/06/25 11:46:19;;;;;;;23.13;15.40;;;8.90;99.90;;;;;;5113453;28;20390;-81
2022/06/25 11:48:50;;;;;;;27.25;20.15;;;8.90;99.90;;;;;;5113527;28;20370;-77
2022/06/25 11:51:24;;;;;;;27.35;21.00;;;8.90;99.90;;;;;;5113610;28;20431;-79
2022/06/25 11:53:52;;;;;;;35.95;23.63;;;8.90;99.90;;;;;;5099961;28;20390;-76
2022/06/25 11:56:20;;;;;;;37.53;26.38;;;8.80;99.90;;;;;;5113841;28;20790;-81
2022/06/25 11:58:47;;;;;;;44.25;28.55;;;8.80;99.90;;;;;;5113182;28;20383;-77
2022/06/25 12:01:15;;;;;;;28.80;22.13;;;8.70;99.90;;;;;;5113114;28;20898;-77
2022/06/25 12:03:42;;;;;;;34.10;24.20;;;8.70;99.90;;;;;;5112056;28;20880;-77
2022/06/25 12:06:10;;;;;;;29.77;22.90;;;8.70;99.90;;;;;;5113046;28;20784;-82
2022/06/25 12:08:38;;;;;;;29.20;21.50;;;8.70;99.90;;;;;;5112375;28;20437;-78
2022/06/25 12:11:06;;;;;;;26.77;20.10;;;8.50;99.90;;;;;;5112862;28;20489;-82
2022/06/25 12:13:33;;;;;;;26.02;19.40;;;8.60;99.90;;;;;;5112821;28;20390;-80
2022/06/25 12:16:07;;;;;;;22.73;17.83;;;8.70;99.90;;;;;;5113195;28;20940;-76
2022/06/25 12:18:39;;;;;;;26.30;19.00;;;8.60;99.90;;;;;;5112588;28;20897;-78
2022/06/25 12:21:08;;;;;;;26.23;18.65;;;8.60;99.90;;;;;;5113018;28;20395;-80
2022/06/25 12:23:59;;;;;;;27.17;20.17;;;8.60;99.90;;;;;;5113080;28;20382;-81
2022/06/25 12:26:33;;;;;;;24.48;17.55;;;8.50;99.90;;;;;;5111020;28;20426;-81
2022/06/25 12:29:12;;;;;;;26.83;18.20;;;8.40;99.90;;;;;;5112614;28;20387;-79
2022/06/25 12:31:51;;;;;;;28.13;19.00;;;8.40;99.90;;;;;;5105139;28;20393;-81
2022/06/25 12:34:18;;;;;;;24.87;17.97;;;8.30;99.90;;;;;;5112791;28;20391;-77
2022/06/25 12:36:50;;;;;;;27.60;18.63;;;8.30;99.90;;;;;;5112121;28;20425;-78
2022/06/25 12:39:38;;;;;;;27.25;17.48;;;8.30;99.90;;;;;;5112251;28;20390;-77
2022/06/25 12:42:08;;;;;;;21.80;16.95;;;8.20;99.90;;;;;;5100455;28;20363;-78
2022/06/25 12:44:40;;;;;;;22.70;17.00;;;8.20;99.90;;;;;;5111988;28;20474;-77
2022/06/25 12:47:15;;;;;;;22.33;16.23;;;8.20;99.90;;;;;;5111231;28;20394;-77
2022/06/25 12:49:58;;;;;;;20.85;16.67;;;8.10;99.90;;;;;;5112422;28;20485;-78
2022/06/25 12:52:36;;;;;;;20.05;16.10;;;8.10;99.90;;;;;;5111939;28;20394;-81
2022/06/25 12:55:07;;;;;;;25.35;17.90;;;8.00;99.90;;;;;;5111587;28;20378;-78
2022/06/25 12:57:37;;;;;;;27.27;20.38;;;7.90;99.90;;;;;;5111690;28;20783;-82
2022/06/25 13:00:17;;;;;;;29.52;20.23;;;7.90;99.90;;;;;;5112441;28;20855;-76
2022/06/25 13:02:44;;;;;;;27.40;21.55;;;7.90;99.90;;;;;;5111005;28;20390;-79
2022/06/25 13:05:11;;;;;;;25.90;19.08;;;7.90;99.90;;;;;;5111132;28;20892;-78
2022/06/25 13:07:39;;;;;;;28.65;19.90;;;7.80;99.90;;;;;;5111895;28;20849;-81
2022/06/25 13:10:06;;;;;;;26.17;19.48;;;7.80;99.90;;;;;;5111030;28;20390;-82
2022/06/25 13:12:34;;;;;;;27.50;19.20;;;7.70;99.90;;;;;;5111404;28;20538;-79
2022/06/25 13:15:04;;;;;;;24.63;17.90;;;7.70;99.90;;;;;;5112291;28;20775;-79
2022/06/25 13:17:31;;;;;;;23.35;17.40;;;7.70;99.90;;;;;;5112115;28;20465;-77
2022/06/25 13:19:58;;;;;;;25.23;19.33;;;7.70;99.90;;;;;;5111603;28;20370;-78
2022/06/25 13:22:25;;;;;;;30.42;20.67;;;7.70;99.90;;;;;;5111930;28;20418;-80
2022/06/25 13:24:52;;;;;;;24.23;18.70;;;7.60;99.90;;;;;;5111852;28;20375;-78
2022/06/25 13:27:20;;;;;;;26.05;20.52;;;7.60;99.90;;;;;;5099111;28;20865;-77
2022/06/25 13:29:47;;;;;;;27.98;22.17;;;7.60;99.90;;;;;;5097417;28;20479;-81